Impacts METAR Board
IDs:

KSEA - Seattle-Tacoma Intl, WA, US

Updated at: 1200 UTC 05 Jun 2023
Potential Impact None Slight Moderate High
Time 05/00Z 05/01Z 05/02Z 05/03Z 05/04Z 05/05Z 05/06Z 05/07Z 05/08Z 05/09Z 05/10Z 05/11Z 05/12Z
Temp69 68 65 63 58 59 57 56 54 53 52 49 51
Dewpt26 30 32 32 34 34 35 36 40 39 39 38 40
Altim30.18 30.17 30.16 30.16 30.16 30.17 30.16 30.17 30.17 30.17 30.18 30.19 30.19
VIS10 10 10 10 10 10 10 10 10 10 10 10 10
CIG-- -- -- -- -- -- -- -- -- -- -- -- --
CoverCLRCLRCLRCLRCLRCLRCLRCLRCLRCLRCLRCLRCLR
FltCatVFRVFRVFRVFRVFRVFRVFRVFRVFRVFRVFRVFRVFR
WX--------------------------
WDir34034036035033010504060404034030
WSpd13 13 10 10 5 9 6 5 8 10 7 3 8
WGst-- -- -- -- -- -- -- -- -- -- -- -- --
Raw hourly METARs
KSEA 042353Z 34013KT 10SM CLR 21/M03 A3018 RMK AO2 SLP226 T02061033 10211 20161 56014
KSEA 050053Z 34013KT 10SM CLR 20/M01 A3017 RMK AO2 SLP221 T02001011
KSEA 050153Z 36010KT 10SM CLR 18/00 A3016 RMK AO2 SLP218 T01830000
KSEA 050253Z 35010KT 10SM CLR 17/00 A3016 RMK AO2 SLP217 T01720000 56008
KSEA 050353Z 33005KT 10SM CLR 14/01 A3016 RMK AO2 SLP218 T01440011
KSEA 050453Z 01009KT 10SM CLR 15/01 A3017 RMK AO2 SLP221 T01500011
KSEA 050553Z 05006KT 10SM CLR 14/02 A3016 RMK AO2 SLP220 T01390017 10211 20139 50003
KSEA 050653Z 04005KT 10SM CLR 13/02 A3017 RMK AO2 SLP222 T01330022
KSEA 050753Z 06008KT 10SM CLR 12/04 A3017 RMK AO2 SLP222 T01220044 402110111
KSEA 050853Z 04010KT 10SM CLR 12/04 A3017 RMK AO2 SLP223 T01170039 51003
KSEA 050953Z 04007KT 10SM CLR 11/04 A3018 RMK AO2 SLP225 T01110039
KSEA 051053Z 34003KT 10SM CLR 09/03 A3019 RMK AO2 SLP227 T00940033
KSEA 051153Z 03008KT 10SM CLR 11/04 A3019 RMK AO2 SLP228 T01060044 10139 20094 51004



Page loaded:  12:47 UTC  |   05:47 AM Pacific  |   06:47 AM Mountain  |   07:47 AM Central  |   08:47 AM Eastern

 

ADVISORIES

FORECASTS

FORECASTS

OBSERVATIONS

USER TOOLS

ABOUT US